Time;durP1;ratioP1;P1;durP2;ratioP2;P2;SDS_P1;SDS_P2;PMS_P1;PMS_P2;Temp;Humidity;BMP_temperature;BMP_pressure;BME280_temperature;BME280_humidity;BME280_pressure;Samples;Min_cycle;Max_cycle;Signal;HPM_P1;HPM_P2
2021/06/12 00:00:22;;;;;;;9.57;3.63;;;13.90;94.80;;;;;;4895704;29;20068;-93
2021/06/12 00:02:48;;;;;;;8.98;3.15;;;13.90;95.10;;;;;;4910219;29;20020;-94
2021/06/12 00:05:16;;;;;;;11.02;3.90;;;13.80;95.40;;;;;;4884622;29;20033;-94
2021/06/12 00:07:42;;;;;;;11.30;3.50;;;13.80;96.00;;;;;;4905431;29;20446;-95
2021/06/12 00:10:12;;;;;;;8.52;3.15;;;13.80;95.80;;;;;;4893439;29;20085;-94
2021/06/12 00:12:37;;;;;;;10.95;3.67;;;13.80;96.00;;;;;;4880474;29;20062;-93
2021/06/12 00:15:07;;;;;;;14.48;4.13;;;13.70;96.00;;;;;;4874835;29;20028;-94
2021/06/12 00:17:33;;;;;;;10.15;4.03;;;13.70;96.20;;;;;;4873781;29;20093;-93
2021/06/12 00:19:58;;;;;;;8.63;3.55;;;13.60;96.30;;;;;;4883080;29;20033;-93
2021/06/12 00:22:24;;;;;;;11.93;3.70;;;13.60;96.60;;;;;;4893121;29;20032;-92
2021/06/12 00:24:50;;;;;;;9.10;3.60;;;13.50;96.80;;;;;;4893245;29;20033;-93
2021/06/12 00:27:16;;;;;;;8.73;3.50;;;13.40;97.00;;;;;;4896762;29;20044;-92
2021/06/12 00:29:42;;;;;;;10.50;3.78;;;13.30;97.30;;;;;;4919190;29;20021;-93
2021/06/12 00:32:08;;;;;;;8.43;3.35;;;13.30;97.60;;;;;;4900458;29;20072;-92
2021/06/12 00:34:33;;;;;;;10.57;3.42;;;13.30;97.80;;;;;;4902834;29;20025;-93
2021/06/12 00:36:59;;;;;;;11.93;3.70;;;13.30;98.00;;;;;;4900055;29;20067;-91
2021/06/12 00:39:25;;;;;;;11.98;3.90;;;13.30;98.10;;;;;;4915573;29;20049;-93
2021/06/12 00:41:51;;;;;;;8.60;3.58;;;13.20;98.10;;;;;;4899299;29;20033;-94
2021/06/12 00:44:17;;;;;;;11.82;3.72;;;13.10;98.20;;;;;;4903831;29;20029;-92
2021/06/12 00:46:42;;;;;;;10.70;3.55;;;13.10;98.50;;;;;;4894678;29;20024;-91
2021/06/12 00:49:08;;;;;;;8.25;3.33;;;13.00;98.80;;;;;;4899233;29;20092;-92
2021/06/12 00:51:34;;;;;;;10.75;3.85;;;12.90;99.00;;;;;;4914320;29;20028;-91
2021/06/12 00:54:00;;;;;;;7.88;3.67;;;12.80;99.20;;;;;;4897190;29;20857;-91
2021/06/12 00:56:26;;;;;;;11.30;3.95;;;12.80;99.60;;;;;;4894706;29;20081;-93
2021/06/12 00:58:52;;;;;;;16.15;3.70;;;12.80;99.90;;;;;;4895451;29;20131;-92
2021/06/12 01:01:20;;;;;;;10.38;3.78;;;12.80;99.90;;;;;;4898166;29;20050;-92
2021/06/12 01:03:47;;;;;;;10.43;4.28;;;12.80;99.90;;;;;;4897883;29;20024;-92
2021/06/12 01:06:16;;;;;;;8.70;3.45;;;12.70;99.90;;;;;;4892099;29;20040;-93
2021/06/12 01:08:42;;;;;;;12.27;3.80;;;12.70;99.90;;;;;;4894125;29;20024;-92
2021/06/12 01:11:10;;;;;;;12.43;4.10;;;12.70;99.90;;;;;;4900799;29;20035;-94
2021/06/12 01:13:58;;;;;;;9.30;3.70;;;12.70;99.90;;;;;;4897778;29;20060;-92
2021/06/12 01:16:42;;;;;;;11.85;4.10;;;12.70;99.90;;;;;;4907643;29;20036;-93
2021/06/12 01:19:33;;;;;;;9.52;3.67;;;12.70;99.90;;;;;;4897491;29;20069;-93
2021/06/12 01:22:06;;;;;;;10.80;3.92;;;12.70;99.90;;;;;;4894119;29;20041;-95
2021/06/12 01:25:13;;;;;;;9.68;3.53;;;12.70;99.90;;;;;;4894037;29;20041;-92
2021/06/12 01:27:58;;;;;;;7.50;3.30;;;12.60;99.90;;;;;;4893366;29;20033;-94
2021/06/12 01:30:27;;;;;;;12.73;3.72;;;12.70;99.90;;;;;;4894007;29;20020;-92
2021/06/12 01:32:59;;;;;;;9.20;3.42;;;12.70;99.90;;;;;;4894169;29;20120;-92
2021/06/12 01:35:37;;;;;;;9.82;4.15;;;12.60;99.90;;;;;;4900848;29;20375;-92
2021/06/12 01:38:06;;;;;;;12.00;3.63;;;12.60;99.90;;;;;;4893692;29;20025;-92
2021/06/12 01:40:35;;;;;;;10.65;3.70;;;12.50;99.90;;;;;;4893487;29;20032;-91
2021/06/12 01:43:05;;;;;;;12.60;3.92;;;12.50;99.90;;;;;;4892591;29;20040;-92
2021/06/12 01:45:32;;;;;;;13.40;4.53;;;12.50;99.90;;;;;;4891760;29;20021;-92
2021/06/12 01:48:00;;;;;;;9.32;4.15;;;12.40;99.90;;;;;;4892216;29;20043;-92
2021/06/12 01:50:27;;;;;;;6.38;3.28;;;12.30;99.90;;;;;;4893340;29;20017;-92
2021/06/12 01:52:55;;;;;;;11.25;4.85;;;12.20;99.90;;;;;;4878236;29;20083;-92
2021/06/12 01:55:25;;;;;;;10.23;4.18;;;12.30;99.90;;;;;;4893231;29;20085;-93
2021/06/12 01:57:51;;;;;;;10.75;3.67;;;12.30;99.90;;;;;;4892562;29;20056;-92
2021/06/12 02:00:18;;;;;;;6.78;3.85;;;12.30;99.90;;;;;;4892518;29;20085;-92
2021/06/12 02:02:46;;;;;;;10.55;3.88;;;12.30;99.90;;;;;;4892495;29;20035;-94
2021/06/12 02:05:14;;;;;;;6.65;3.40;;;12.30;99.90;;;;;;4893468;29;20032;-92
2021/06/12 02:07:41;;;;;;;10.18;4.07;;;12.20;99.90;;;;;;4898115;29;20526;-92
2021/06/12 02:10:09;;;;;;;10.10;4.22;;;12.20;99.90;;;;;;4883269;29;20102;-93
2021/06/12 02:12:35;;;;;;;11.68;4.05;;;12.20;99.90;;;;;;4888342;29;20478;-92
2021/06/12 02:15:03;;;;;;;8.65;3.80;;;12.20;99.90;;;;;;4887615;29;20032;-92
2021/06/12 02:17:31;;;;;;;7.90;3.97;;;12.20;99.90;;;;;;4885351;29;20044;-92
2021/06/12 02:19:59;;;;;;;8.73;4.13;;;12.10;99.90;;;;;;4888669;29;20029;-92
2021/06/12 02:22:25;;;;;;;11.23;4.00;;;12.10;99.90;;;;;;4888661;29;20036;-92
2021/06/12 02:24:50;;;;;;;10.57;4.22;;;12.00;99.90;;;;;;4892094;29;20029;-92
2021/06/12 02:27:21;;;;;;;10.68;4.15;;;12.10;99.90;;;;;;4892186;29;20025;-92
2021/06/12 02:29:49;;;;;;;13.68;4.22;;;12.10;99.90;;;;;;4892272;29;20044;-92
2021/06/12 02:32:18;;;;;;;15.73;4.47;;;12.20;99.90;;;;;;4891655;29;20045;-92
2021/06/12 02:34:43;;;;;;;8.88;4.32;;;12.20;99.90;;;;;;4891778;29;20020;-92
2021/06/12 02:37:10;;;;;;;11.02;3.97;;;12.20;99.90;;;;;;4907838;29;20058;-93
2021/06/12 02:39:39;;;;;;;9.95;4.32;;;12.20;99.90;;;;;;4891151;29;20024;-92
2021/06/12 02:42:05;;;;;;;11.18;4.38;;;12.20;99.90;;;;;;4891832;29;20051;-92
2021/06/12 02:44:31;;;;;;;11.35;4.35;;;12.20;99.90;;;;;;4891943;29;20021;-92
2021/06/12 02:47:02;;;;;;;8.45;4.13;;;12.20;99.90;;;;;;4891630;29;20032;-92
2021/06/12 02:49:32;;;;;;;10.43;4.70;;;12.20;99.90;;;;;;4897814;29;20037;-94
2021/06/12 02:52:05;;;;;;;7.10;4.00;;;12.30;99.90;;;;;;4890422;29;20063;-92
2021/06/12 02:54:32;;;;;;;12.05;4.35;;;12.20;99.90;;;;;;4885365;29;20083;-92
2021/06/12 02:56:59;;;;;;;10.80;3.97;;;12.30;99.90;;;;;;4885775;29;20087;-93
2021/06/12 02:59:29;;;;;;;10.15;4.38;;;12.30;99.90;;;;;;4886961;29;20024;-93
2021/06/12 03:01:55;;;;;;;10.60;4.47;;;12.30;99.90;;;;;;4886621;29;20494;-93
2021/06/12 03:04:22;;;;;;;10.30;4.45;;;12.30;99.90;;;;;;4886767;29;20121;-93
2021/06/12 03:06:50;;;;;;;14.20;4.43;;;12.30;99.90;;;;;;4884098;29;20128;-94
2021/06/12 03:09:20;;;;;;;9.35;4.10;;;12.30;99.90;;;;;;4886849;29;20025;-93
2021/06/12 03:11:48;;;;;;;10.93;4.67;;;12.30;99.90;;;;;;4886707;29;20024;-93
2021/06/12 03:14:17;;;;;;;12.98;4.28;;;12.20;99.90;;;;;;4887573;29;20261;-93
2021/06/12 03:16:45;;;;;;;11.85;5.47;;;12.30;99.90;;;;;;4902988;29;20041;-93
2021/06/12 03:19:13;;;;;;;13.25;4.80;;;12.30;99.90;;;;;;4886828;29;20075;-93
2021/06/12 03:21:41;;;;;;;11.18;4.72;;;12.20;99.90;;;;;;4887081;29;20028;-94
2021/06/12 03:24:08;;;;;;;13.93;5.28;;;12.20;99.90;;;;;;4891790;29;20024;-93
2021/06/12 03:26:34;;;;;;;12.00;5.00;;;12.20;99.90;;;;;;4897689;29;20123;-93
2021/06/12 03:29:04;;;;;;;9.45;5.15;;;12.20;99.90;;;;;;4886740;29;20027;-93
2021/06/12 03:31:31;;;;;;;8.82;4.57;;;12.20;99.90;;;;;;4891876;29;20052;-93
2021/06/12 03:33:58;;;;;;;12.73;5.28;;;12.20;99.90;;;;;;4886322;29;20035;-93
2021/06/12 03:36:25;;;;;;;12.98;4.65;;;12.20;99.90;;;;;;4886601;29;20029;-94
2021/06/12 03:38:52;;;;;;;12.65;4.65;;;12.30;99.90;;;;;;4886960;29;20028;-93
2021/06/12 03:41:18;;;;;;;18.80;7.85;;;12.30;99.90;;;;;;4887523;29;20387;-92
2021/06/12 03:43:45;;;;;;;11.70;4.85;;;12.40;99.90;;;;;;4887310;29;20051;-93
2021/06/12 03:46:15;;;;;;;13.38;5.60;;;12.40;99.90;;;;;;4887614;29;20038;-94
2021/06/12 03:48:44;;;;;;;12.68;5.55;;;12.40;99.90;;;;;;4885655;29;20029;-92
2021/06/12 03:51:15;;;;;;;12.93;5.85;;;12.40;99.90;;;;;;4883119;29;20036;-93
2021/06/12 03:53:44;;;;;;;13.77;7.50;;;12.40;99.90;;;;;;4887466;29;20028;-92
2021/06/12 03:56:12;;;;;;;14.07;7.43;;;12.50;99.90;;;;;;4886273;29;20383;-93
2021/06/12 03:58:40;;;;;;;21.73;7.57;;;12.50;99.90;;;;;;4888343;29;20056;-94
2021/06/12 04:01:07;;;;;;;19.25;6.90;;;12.50;99.90;;;;;;4887999;29;20052;-93
2021/06/12 04:03:32;;;;;;;13.95;6.90;;;12.50;99.90;;;;;;4887686;29;20032;-93
2021/06/12 04:05:58;;;;;;;16.65;9.20;;;12.60;99.90;;;;;;4886784;29;20025;-93
2021/06/12 04:08:24;;;;;;;17.50;7.90;;;12.60;99.90;;;;;;4886897;29;20040;-93
2021/06/12 04:10:49;;;;;;;19.45;9.52;;;12.60;99.90;;;;;;4892584;29;20029;-92
2021/06/12 04:13:15;;;;;;;19.92;8.88;;;12.70;99.90;;;;;;4884946;29;20028;-93
2021/06/12 04:15:41;;;;;;;20.08;8.80;;;12.70;99.90;;;;;;4884242;29;20021;-93
2021/06/12 04:18:08;;;;;;;20.13;9.43;;;12.70;99.90;;;;;;4883875;29;20359;-94
2021/06/12 04:20:39;;;;;;;22.77;9.15;;;12.80;99.90;;;;;;4884008;29;20024;-93
2021/06/12 04:23:05;;;;;;;22.33;9.13;;;12.80;99.90;;;;;;4885505;29;20084;-91
2021/06/12 04:25:31;;;;;;;16.67;9.60;;;12.80;99.90;;;;;;4892836;29;20123;-93
2021/06/12 04:27:57;;;;;;;18.77;9.60;;;12.80;99.90;;;;;;4884966;29;20128;-92
2021/06/12 04:30:23;;;;;;;20.65;9.90;;;12.90;99.90;;;;;;4886926;29;20060;-93
2021/06/12 04:32:49;;;;;;;23.23;9.52;;;12.90;99.90;;;;;;4885912;29;20093;-92
2021/06/12 04:35:15;;;;;;;21.33;9.10;;;12.90;99.90;;;;;;4886764;29;20033;-92
2021/06/12 04:37:45;;;;;;;16.65;8.32;;;12.90;99.90;;;;;;4887836;29;20028;-92
2021/06/12 04:40:14;;;;;;;18.75;7.75;;;12.90;99.90;;;;;;4888570;29;20021;-91
2021/06/12 04:42:41;;;;;;;18.00;9.40;;;12.90;99.90;;;;;;4893506;29;20110;-94
2021/06/12 04:45:08;;;;;;;16.92;8.50;;;13.00;99.90;;;;;;4897650;29;20034;-92
2021/06/12 04:47:34;;;;;;;14.48;8.10;;;13.00;99.90;;;;;;4890382;29;20065;-92
2021/06/12 04:50:00;;;;;;;15.23;8.15;;;13.00;99.90;;;;;;4891359;29;20052;-92
2021/06/12 04:52:26;;;;;;;16.52;8.57;;;13.00;99.90;;;;;;4891596;29;20028;-93
2021/06/12 04:54:52;;;;;;;17.65;8.18;;;13.00;99.90;;;;;;4889199;29;20036;-93
2021/06/12 04:57:19;;;;;;;15.32;7.90;;;13.10;99.90;;;;;;4888275;29;20029;-92
2021/06/12 04:59:44;;;;;;;20.05;8.00;;;13.10;99.90;;;;;;4888285;29;20021;-92
2021/06/12 05:02:10;;;;;;;13.10;6.80;;;13.10;99.90;;;;;;4888982;29;20029;-93
2021/06/12 05:04:36;;;;;;;15.02;7.78;;;13.20;99.90;;;;;;4889086;29;20028;-92
2021/06/12 05:07:02;;;;;;;13.70;6.90;;;13.20;99.90;;;;;;4888124;29;20037;-93
2021/06/12 05:09:29;;;;;;;11.43;5.68;;;13.20;99.90;;;;;;4892565;29;20025;-93
2021/06/12 05:11:55;;;;;;;10.60;5.30;;;13.20;99.90;;;;;;4903315;29;20056;-92
2021/06/12 05:14:21;;;;;;;11.48;5.00;;;13.20;99.90;;;;;;4909936;29;20040;-92
2021/06/12 05:16:47;;;;;;;12.82;5.05;;;13.30;99.90;;;;;;4903312;29;20025;-92
2021/06/12 05:19:13;;;;;;;13.18;4.95;;;13.20;99.90;;;;;;4894278;29;20032;-93
2021/06/12 05:21:39;;;;;;;13.02;5.72;;;13.30;99.90;;;;;;4910248;29;20045;-93
2021/06/12 05:24:06;;;;;;;10.40;4.47;;;13.30;99.90;;;;;;4891629;29;20025;-92
2021/06/12 05:26:32;;;;;;;11.40;4.70;;;13.30;99.90;;;;;;4888836;29;20024;-93
2021/06/12 05:28:58;;;;;;;11.55;4.65;;;13.30;99.90;;;;;;4887267;29;20097;-92
2021/06/12 05:31:24;;;;;;;7.63;4.03;;;13.30;99.90;;;;;;4898001;29;20033;-92
2021/06/12 05:33:50;;;;;;;12.60;4.15;;;13.30;99.90;;;;;;4888812;29;20040;-92
2021/06/12 05:36:16;;;;;;;10.90;4.70;;;13.30;99.90;;;;;;4888285;29;20439;-92
2021/06/12 05:38:42;;;;;;;12.40;3.88;;;13.30;99.90;;;;;;4888730;29;20060;-92
2021/06/12 05:41:08;;;;;;;8.50;3.35;;;13.30;99.90;;;;;;4893212;29;20021;-93
2021/06/12 05:43:34;;;;;;;10.20;3.97;;;13.30;99.90;;;;;;4892961;29;20076;-92
2021/06/12 05:46:01;;;;;;;7.80;3.05;;;13.30;99.90;;;;;;4892303;29;20028;-93
2021/06/12 05:48:27;;;;;;;9.75;3.00;;;13.30;99.90;;;;;;4893028;29;20037;-92
2021/06/12 05:50:53;;;;;;;9.52;3.00;;;13.20;99.90;;;;;;4892338;29;20025;-92
2021/06/12 05:53:20;;;;;;;7.05;3.17;;;13.20;99.90;;;;;;4892211;29;20060;-93
2021/06/12 05:55:46;;;;;;;8.30;3.25;;;13.30;99.90;;;;;;4891065;29;20052;-91
2021/06/12 05:58:12;;;;;;;9.30;3.22;;;13.30;99.90;;;;;;4890183;29;20036;-93
2021/06/12 06:00:38;;;;;;;7.13;2.42;;;13.30;99.90;;;;;;4891415;29;20032;-92
2021/06/12 06:03:04;;;;;;;7.03;2.90;;;13.40;99.90;;;;;;4889766;23;20061;-93
2021/06/12 06:05:29;;;;;;;10.45;2.53;;;13.40;99.90;;;;;;4884482;23;20049;-94
2021/06/12 06:07:55;;;;;;;8.32;2.92;;;13.40;99.90;;;;;;4857088;29;20086;-93
2021/06/12 06:10:22;;;;;;;8.80;2.60;;;13.50;99.90;;;;;;4856443;29;20038;-94
2021/06/12 06:12:48;;;;;;;7.28;2.50;;;13.60;99.90;;;;;;4855877;29;20045;-94
2021/06/12 06:15:15;;;;;;;6.15;2.70;;;13.70;99.90;;;;;;4856373;29;20034;-92
2021/06/12 06:17:42;;;;;;;6.50;2.17;;;13.80;99.90;;;;;;4872144;29;20037;-93
2021/06/12 06:20:10;;;;;;;4.03;2.20;;;13.80;99.90;;;;;;4872074;29;20504;-93
2021/06/12 06:22:37;;;;;;;6.05;2.00;;;13.90;99.90;;;;;;4874780;29;20022;-95
2021/06/12 06:25:04;;;;;;;8.95;2.40;;;13.90;99.90;;;;;;4860509;29;20067;-94
2021/06/12 06:27:34;;;;;;;8.10;3.15;;;13.90;99.90;;;;;;4842984;29;20101;-94
2021/06/12 06:30:05;;;;;;;11.57;2.37;;;14.00;99.90;;;;;;4840698;29;20455;-93
2021/06/12 06:32:33;;;;;;;6.85;1.90;;;14.00;99.90;;;;;;4878052;29;20387;-94
2021/06/12 06:35:01;;;;;;;7.43;1.95;;;14.00;99.90;;;;;;4861128;29;20104;-92
2021/06/12 06:37:28;;;;;;;7.75;1.98;;;14.00;99.90;;;;;;4861840;29;20036;-93
2021/06/12 06:39:55;;;;;;;7.05;2.03;;;14.00;99.90;;;;;;4858316;29;20121;-92
2021/06/12 06:42:20;;;;;;;12.45;2.10;;;13.90;99.90;;;;;;4869767;29;20464;-93
2021/06/12 06:44:47;;;;;;;6.22;2.15;;;13.90;99.90;;;;;;4869043;29;20049;-93
2021/06/12 06:47:14;;;;;;;3.25;1.73;;;13.90;99.90;;;;;;4834601;29;20046;-94
2021/06/12 06:49:41;;;;;;;4.97;1.67;;;13.90;99.90;;;;;;4851723;29;20029;-94
2021/06/12 06:52:07;;;;;;;8.13;2.00;;;14.10;99.90;;;;;;4851285;29;20030;-93
2021/06/12 06:54:33;;;;;;;10.45;1.80;;;14.10;99.90;;;;;;4867590;29;20033;-93
2021/06/12 06:56:59;;;;;;;9.73;1.80;;;14.10;99.90;;;;;;4846779;29;20072;-92
2021/06/12 06:59:31;;;;;;;8.38;2.13;;;14.20;99.90;;;;;;4840827;29;20045;-93
2021/06/12 07:01:56;;;;;;;3.38;1.90;;;14.30;99.80;;;;;;4836858;29;20037;-92
2021/06/12 07:04:24;;;;;;;5.15;2.00;;;14.30;99.30;;;;;;4856506;29;20096;-92
2021/06/12 07:06:51;;;;;;;8.32;1.90;;;14.40;98.80;;;;;;4840419;29;20033;-91
2021/06/12 07:09:20;;;;;;;13.27;1.73;;;14.50;98.50;;;;;;4857140;29;20535;-92
2021/06/12 07:11:47;;;;;;;11.45;2.30;;;14.60;98.50;;;;;;4836733;29;20521;-91
2021/06/12 07:14:13;;;;;;;4.57;1.80;;;14.60;98.20;;;;;;4838214;29;20041;-92
2021/06/12 07:16:39;;;;;;;7.30;1.85;;;14.70;97.90;;;;;;4861867;29;20057;-90
2021/06/12 07:19:05;;;;;;;4.38;1.52;;;14.80;97.50;;;;;;4866698;29;20098;-91
2021/06/12 07:21:31;;;;;;;8.82;1.88;;;14.90;97.30;;;;;;4849520;29;20029;-91
2021/06/12 07:23:56;;;;;;;6.82;2.83;;;15.00;97.10;;;;;;4845559;29;20124;-92
2021/06/12 07:26:37;;;;;;;6.45;1.45;;;15.20;96.80;;;;;;4865569;29;20049;-92
2021/06/12 07:29:04;;;;;;;4.90;2.00;;;15.30;96.10;;;;;;4837871;29;20049;-93
2021/06/12 07:31:32;;;;;;;6.55;1.75;;;15.40;95.30;;;;;;5132538;23;20062;-94
2021/06/12 07:33:59;;;;;;;3.33;1.65;;;15.60;95.10;;;;;;4858939;29;20042;-93
2021/06/12 07:36:43;;;;;;;3.58;1.83;;;15.60;94.60;;;;;;4861998;29;20053;-94
2021/06/12 07:39:11;;;;;;;6.57;2.33;;;15.60;94.00;;;;;;4857921;29;20033;-94
2021/06/12 07:41:40;;;;;;;8.07;2.08;;;15.80;93.70;;;;;;4851011;29;20535;-93
2021/06/12 07:44:07;;;;;;;8.70;1.70;;;15.90;93.40;;;;;;4847694;29;20025;-93
2021/06/12 07:46:34;;;;;;;7.68;1.55;;;16.00;93.10;;;;;;4834772;29;20054;-93
2021/06/12 07:49:03;;;;;;;9.10;1.63;;;16.00;93.20;;;;;;4848750;29;20038;-93
2021/06/12 07:51:32;;;;;;;8.25;2.00;;;16.10;93.10;;;;;;4852029;29;20026;-93
2021/06/12 07:53:59;;;;;;;4.35;1.85;;;16.00;93.10;;;;;;4856906;29;20033;-93
2021/06/12 07:56:25;;;;;;;5.25;1.67;;;16.00;92.50;;;;;;4852399;29;20029;-92
2021/06/12 07:58:53;;;;;;;8.23;2.08;;;16.00;92.70;;;;;;4844206;29;20042;-92
2021/06/12 08:01:21;;;;;;;9.85;1.65;;;16.00;92.30;;;;;;4837166;29;20038;-94
2021/06/12 08:03:46;;;;;;;7.07;1.80;;;16.00;91.80;;;;;;4847642;29;20041;-92
2021/06/12 08:06:12;;;;;;;9.43;2.90;;;16.10;91.80;;;;;;4847278;29;20044;-94
2021/06/12 08:08:38;;;;;;;4.50;1.70;;;16.20;91.80;;;;;;4831994;29;20030;-93
2021/06/12 08:11:05;;;;;;;7.82;2.25;;;16.30;91.70;;;;;;4833264;29;20396;-94
2021/06/12 08:13:31;;;;;;;9.48;2.28;;;16.40;91.40;;;;;;4839360;29;20436;-93
2021/06/12 08:15:57;;;;;;;2.83;1.75;;;16.50;91.30;;;;;;4849333;29;20496;-94
2021/06/12 08:18:23;;;;;;;9.13;1.88;;;16.50;90.90;;;;;;4831601;29;20476;-94
2021/06/12 08:20:49;;;;;;;5.75;2.00;;;16.50;90.70;;;;;;4831490;29;20045;-93
2021/06/12 08:23:16;;;;;;;11.38;2.33;;;16.50;90.90;;;;;;4848687;29;20029;-94
2021/06/12 08:25:42;;;;;;;8.10;2.50;;;16.40;90.60;;;;;;4848537;29;20030;-92
2021/06/12 08:28:08;;;;;;;6.72;1.65;;;16.40;90.60;;;;;;4849232;29;20038;-92
2021/06/12 08:30:35;;;;;;;4.10;1.65;;;16.30;90.50;;;;;;4837451;29;20691;-92
2021/06/12 08:33:04;;;;;;;6.82;1.80;;;16.20;90.50;;;;;;4812294;29;20033;-93
2021/06/12 08:35:30;;;;;;;9.90;2.10;;;16.20;90.70;;;;;;4836446;29;20037;-93
2021/06/12 08:37:56;;;;;;;6.43;2.33;;;16.10;90.90;;;;;;4848150;29;20063;-93
2021/06/12 08:40:24;;;;;;;8.55;2.00;;;16.10;91.00;;;;;;4837193;29;20034;-93
2021/06/12 08:42:52;;;;;;;8.52;2.10;;;16.10;90.90;;;;;;4855462;29;20105;-94
2021/06/12 08:45:37;;;;;;;4.18;1.90;;;16.00;90.70;;;;;;4859321;29;20026;-93
2021/06/12 08:48:04;;;;;;;9.35;2.30;;;16.00;90.90;;;;;;4826222;29;20076;-93
2021/06/12 08:50:31;;;;;;;6.75;2.58;;;16.00;91.00;;;;;;4841522;29;20025;-93
2021/06/12 08:52:58;;;;;;;7.75;2.28;;;16.10;91.10;;;;;;4850249;29;20041;-93
2021/06/12 09:07:35;;;;;;;7.43;2.30;;;16.00;91.00;;;;;;4862037;29;20060;-93
2021/06/12 09:10:01;;;;;;;13.77;2.22;;;16.00;91.10;;;;;;4842208;29;20034;-94
2021/06/12 09:12:49;;;;;;;10.90;2.72;;;15.90;91.10;;;;;;4846409;29;20046;-93
2021/06/12 09:15:19;;;;;;;7.93;2.47;;;15.90;91.40;;;;;;4847801;29;20094;-92
2021/06/12 09:17:50;;;;;;;9.35;2.22;;;16.00;91.50;;;;;;4831286;29;20124;-94
2021/06/12 09:20:40;;;;;;;8.95;2.17;;;16.00;91.60;;;;;;4845002;29;20089;-92
2021/06/12 09:23:19;;;;;;;6.50;1.90;;;16.00;91.60;;;;;;4850239;29;20045;-93
2021/06/12 09:25:48;;;;;;;6.63;2.00;;;16.10;91.50;;;;;;4844926;29;20081;-92
2021/06/12 09:28:14;;;;;;;6.93;2.17;;;16.00;91.40;;;;;;4837791;29;20030;-93
2021/06/12 09:30:40;;;;;;;6.85;2.10;;;16.00;91.50;;;;;;4839997;29;20026;-94
2021/06/12 09:33:06;;;;;;;6.50;1.63;;;16.00;91.50;;;;;;4842831;29;20544;-93
2021/06/12 09:35:38;;;;;;;5.90;2.00;;;16.00;91.50;;;;;;4832777;29;20086;-93
2021/06/12 09:38:32;;;;;;;7.15;1.75;;;15.90;91.30;;;;;;4840002;29;20075;-93
2021/06/12 09:40:58;;;;;;;8.82;1.52;;;15.90;91.40;;;;;;4843254;29;20038;-92
2021/06/12 09:43:28;;;;;;;7.68;1.92;;;16.00;91.40;;;;;;4844029;29;20032;-94
2021/06/12 09:45:54;;;;;;;7.88;1.95;;;16.00;90.90;;;;;;4839996;29;20029;-93
2021/06/12 09:48:22;;;;;;;5.00;1.70;;;16.00;91.00;;;;;;4874147;29;20045;-94
2021/06/12 09:51:07;;;;;;;10.05;1.88;;;16.10;91.00;;;;;;4843367;29;20468;-91
2021/06/12 09:53:39;;;;;;;7.53;1.50;;;16.20;90.90;;;;;;4837864;29;20029;-94
2021/06/12 09:56:11;;;;;;;5.30;1.75;;;16.30;90.60;;;;;;4848861;29;20026;-94
2021/06/12 09:58:37;;;;;;;4.53;1.58;;;16.40;90.00;;;;;;4843876;29;20026;-93
2021/06/12 10:01:22;;;;;;;5.47;1.83;;;16.30;89.80;;;;;;4841481;29;20030;-92
2021/06/12 10:03:48;;;;;;;6.65;1.73;;;16.40;89.50;;;;;;4854698;29;20063;-92
2021/06/12 10:06:23;;;;;;;5.82;1.38;;;16.50;88.40;;;;;;4842935;29;20530;-93
2021/06/12 10:08:51;;;;;;;7.32;1.40;;;16.50;87.80;;;;;;4840002;29;20110;-93
2021/06/12 10:11:21;;;;;;;3.15;1.30;;;16.90;86.40;;;;;;4840508;29;20116;-94
2021/06/12 10:13:47;;;;;;;3.55;1.30;;;17.10;85.40;;;;;;4838768;29;20493;-95
2021/06/12 10:16:16;;;;;;;3.85;1.20;;;17.20;84.60;;;;;;4842110;29;20033;-92
2021/06/12 10:18:45;;;;;;;6.22;1.42;;;17.40;82.90;;;;;;4834375;29;20048;-94
2021/06/12 10:21:12;;;;;;;3.97;1.85;;;17.60;82.00;;;;;;4849719;29;20035;-96
2021/06/12 10:23:39;;;;;;;5.80;1.40;;;17.80;81.20;;;;;;4865214;29;20559;-94
2021/06/12 10:26:09;;;;;;;3.58;1.40;;;17.90;79.80;;;;;;4851302;29;20036;-94
2021/06/12 10:28:36;;;;;;;4.93;1.35;;;18.00;79.20;;;;;;4848379;29;20056;-95
2021/06/12 10:31:12;;;;;;;3.60;1.08;;;18.10;77.90;;;;;;4839808;29;20037;-95
2021/06/12 10:33:47;;;;;;;6.85;1.92;;;18.20;77.20;;;;;;4846280;29;20389;-94
2021/06/12 10:36:15;;;;;;;8.00;1.83;;;18.30;76.70;;;;;;4837574;29;20090;-94
2021/06/12 10:38:42;;;;;;;4.80;1.50;;;18.40;76.50;;;;;;4841178;29;20035;-94
2021/06/12 10:41:26;;;;;;;4.05;1.58;;;18.50;76.70;;;;;;4830705;29;20038;-94
2021/06/12 10:43:55;;;;;;;6.63;1.60;;;18.70;76.60;;;;;;4837701;29;20138;-94
2021/06/12 10:46:24;;;;;;;5.38;1.50;;;18.90;75.20;;;;;;4846384;29;20046;-95
2021/06/12 10:48:57;;;;;;;5.82;1.30;;;18.90;74.80;;;;;;4857206;29;20040;-95
2021/06/12 10:51:26;;;;;;;3.55;1.60;;;19.10;74.20;;;;;;4855442;29;20030;-96
2021/06/12 10:54:22;;;;;;;3.20;1.30;;;19.20;73.30;;;;;;4872251;29;20033;-95
2021/06/12 10:57:16;;;;;;;3.40;1.33;;;19.30;72.70;;;;;;4871157;29;20123;-92
2021/06/12 11:00:03;;;;;;;4.75;1.40;;;19.50;72.20;;;;;;4847562;29;20102;-95
2021/06/12 11:02:56;;;;;;;2.13;1.27;;;19.70;71.70;;;;;;4871971;29;20101;-95
2021/06/12 11:05:31;;;;;;;9.60;1.67;;;20.00;70.50;;;;;;4867929;29;20057;-95
2021/06/12 11:08:23;;;;;;;6.43;1.25;;;20.20;69.40;;;;;;4871272;29;20527;-94
2021/06/12 11:10:49;;;;;;;4.72;1.58;;;20.10;67.90;;;;;;4849540;29;20045;-96
2021/06/12 11:13:21;;;;;;;2.30;1.20;;;20.10;67.60;;;;;;4850920;29;20025;-96
2021/06/12 11:15:48;;;;;;;4.88;1.38;;;20.10;68.40;;;;;;4859681;29;20028;-95
2021/06/12 11:18:17;;;;;;;4.53;1.52;;;20.10;68.40;;;;;;4850719;29;20030;-95
2021/06/12 11:20:47;;;;;;;5.18;1.20;;;20.10;68.70;;;;;;4862987;29;20022;-95
2021/06/12 11:23:24;;;;;;;3.38;1.35;;;20.30;68.80;;;;;;4848895;29;20037;-95
2021/06/12 11:25:58;;;;;;;6.15;1.40;;;20.30;68.60;;;;;;4850213;29;20136;-94
2021/06/12 11:28:31;;;;;;;6.70;1.40;;;20.50;67.70;;;;;;4862919;29;20033;-96
2021/06/12 11:31:23;;;;;;;7.25;1.30;;;20.50;67.00;;;;;;4840710;29;20058;-96
2021/06/12 11:34:12;;;;;;;3.22;1.17;;;20.40;67.00;;;;;;4850362;29;20032;-93
2021/06/12 11:36:38;;;;;;;3.70;1.00;;;20.50;67.50;;;;;;4863707;29;20048;-95
2021/06/12 11:39:04;;;;;;;5.55;1.30;;;20.60;66.60;;;;;;4881407;29;20041;-94
2021/06/12 11:41:30;;;;;;;4.60;1.40;;;20.60;65.90;;;;;;4857144;29;20120;-94
2021/06/12 11:43:56;;;;;;;3.95;1.38;;;20.60;66.60;;;;;;4851295;29;20034;-93
2021/06/12 11:46:25;;;;;;;3.95;1.50;;;20.70;66.60;;;;;;4852098;29;20033;-94
2021/06/12 11:49:02;;;;;;;7.93;1.65;;;20.70;65.80;;;;;;4859485;29;20069;-96
2021/06/12 11:51:32;;;;;;;5.22;1.50;;;20.70;65.60;;;;;;4866053;29;20026;-96
2021/06/12 11:54:10;;;;;;;5.30;1.55;;;20.90;65.70;;;;;;4849218;29;20030;-93
2021/06/12 11:56:59;;;;;;;5.05;1.42;;;21.10;65.40;;;;;;4847641;29;20060;-95
2021/06/12 11:59:27;;;;;;;4.55;1.75;;;21.30;65.00;;;;;;4849263;29;20050;-95
2021/06/12 12:01:58;;;;;;;8.13;1.48;;;21.60;64.30;;;;;;4833155;29;20049;-95
2021/06/12 12:04:31;;;;;;;4.30;1.20;;;21.60;63.30;;;;;;4859126;29;20064;-93
2021/06/12 12:06:57;;;;;;;7.65;2.08;;;21.80;63.30;;;;;;4848946;29;20069;-93
2021/06/12 12:09:31;;;;;;;6.65;1.40;;;22.10;62.90;;;;;;4844687;29;20034;-94
2021/06/12 12:11:59;;;;;;;6.07;1.58;;;22.30;62.70;;;;;;4848424;29;20040;-93
2021/06/12 12:14:37;;;;;;;11.23;1.42;;;22.40;61.30;;;;;;4850165;29;20030;-93
2021/06/12 12:17:05;;;;;;;4.50;1.35;;;22.40;61.10;;;;;;4847447;29;20034;-96
2021/06/12 12:19:55;;;;;;;7.70;2.10;;;22.40;60.40;;;;;;5117335;27;20148;-92
2021/06/12 12:22:35;;;;;;;14.40;1.33;;;22.30;60.00;;;;;;5107982;28;20057;-93
2021/06/12 12:25:01;;;;;;;6.38;1.40;;;22.10;60.30;;;;;;5087924;28;20020;-93
2021/06/12 12:27:27;;;;;;;8.07;1.58;;;22.10;60.40;;;;;;5100146;28;20032;-94
2021/06/12 12:29:53;;;;;;;4.15;1.45;;;21.90;60.50;;;;;;5105728;28;20052;-94
2021/06/12 12:32:26;;;;;;;6.20;1.40;;;21.90;61.10;;;;;;5094219;28;20107;-92
2021/06/12 12:34:55;;;;;;;4.43;1.80;;;22.00;61.70;;;;;;5088838;28;20027;-93
2021/06/12 12:44:23;;;;;;;4.00;1.50;;;22.60;59.80;;;;;;6100313;23;20131;31
2021/06/12 12:46:50;;;;;;;3.22;1.30;;;22.70;60.00;;;;;;4949937;28;20071;-93
2021/06/12 12:49:39;;;;;;;3.58;1.45;;;22.80;59.60;;;;;;4941338;29;20031;-92
2021/06/12 12:52:16;;;;;;;3.72;1.10;;;23.00;59.30;;;;;;4965711;28;20043;-95
2021/06/12 12:54:54;;;;;;;4.65;1.95;;;23.00;58.70;;;;;;4975940;28;20103;-94
2021/06/12 12:57:20;;;;;;;4.97;1.42;;;23.10;58.50;;;;;;4971395;28;20020;-92
2021/06/12 12:59:47;;;;;;;3.05;1.70;;;23.10;58.20;;;;;;4979026;28;20030;-92
2021/06/12 13:02:17;;;;;;;8.68;1.90;;;23.10;58.40;;;;;;4979733;28;20023;-92
2021/06/12 13:04:46;;;;;;;4.97;1.70;;;23.00;58.20;;;;;;4980759;28;20034;-92
2021/06/12 13:07:13;;;;;;;5.57;1.65;;;23.00;58.40;;;;;;4972262;28;20019;-91
2021/06/12 13:29:19;;;;;;;2.75;1.13;;;22.20;58.20;;;;;;5140094;27;20398;-92
2021/06/12 13:31:48;;;;;;;6.10;1.75;;;22.10;59.40;;;;;;5120209;28;20032;-94